Glenwood, NJ (07418)

12:36 AM EDT on September 02, 2015 (GMT -0400)
APRSWXNET | | Change Station
CLOSE
Current Station
Personal Weather Station
Location: Glenwood, NJ
Elevation: 458 ft
Nearby Weather Stations

Elev 458 ft 41.22 °N, 74.49 °W | Updated 22 minutes ago

Clear
Clear
63 °F
Feels Like 63 °F
N
0
Wind Variable Wind from NE
Gusts 0.0 mph

Today
High -- | Low -- °F
--% Chance of Precip.
Yesterday
High -- | Low -- °F
Precip. -- in
6:25 AM 7:29 PM
Waning Gibbous, 83% visible
Pressure 30.07 in
Visibility 8.0 miles
Clouds Clear
Dew Point 58 °F
Humidity 83%
Rainfall in
Snow Depth Not available.
UV 0 out of 12
Pollen 10.00 out of 12
Air Quality Not available.
Flu Activity Not available.
METAR KFWN 020353Z AUTO 00000KT 8SM CLR 18/16 A3007 RMK AO2 RAE0255B28E37 SLP181 P0000 T01780161 $
Pressure 30.07 in
Visibility 8.0 miles
Clouds Clear
Dew Point 58 °F
Humidity 83%
Rainfall in
Snow Depth Not available.
UV 0 out of 12
Pollen 10.00 out of 12
Air Quality Not available.
Flu Activity Not available.
METAR KFWN 020353Z AUTO 00000KT 8SM CLR 18/16 A3007 RMK AO2 RAE0255B28E37 SLP181 P0000 T01780161 $

10-Day Weather Forecast

×

Almanac

Astronomy

Sep. 02, 2015 Rise Set
Actual Time
Civil Twilight
Nautical Twilight
Astronomical Twilight
Moon
Length of Visible Light
Length of Day
Tomorrow will be .
, % of the Moon is Illuminated

Today's Extremes

State Highs State Lows

Community

WunderPhotos

Upload Photos

1,851,695 photos uploaded!

WunderBlogs® & News

Nearby

Air Quality

  Air Quality AQ Index Pollutant
Not available.

Snow Depth

Station Depth Elevation

Earthquake Activity

City Distance Mag. Time & Date
Minimum magnitude displayed is 2.5.

Coastal Water Temperatures

Place Temperature

Stations

Nearby Weather Stations

Station Location Temp. Windchill Dew Point Humidity Wind Precip. Elev Updated Type